createdAt,value
2019-02-19T00:02:13.106Z,95631.02
2019-02-19T00:04:39.483Z,95626.45
2019-02-19T00:07:05.817Z,95630.64
2019-02-19T00:09:32.226Z,95632.41
2019-02-19T00:11:58.544Z,95626.52
2019-02-19T00:14:24.873Z,95630.94
2019-02-19T00:16:51.224Z,95631.77
2019-02-19T00:19:17.553Z,95624.52
2019-02-19T00:21:43.909Z,95627.54
2019-02-19T00:24:10.236Z,95622.48
2019-02-19T00:26:36.668Z,95623.42
2019-02-19T00:29:05.571Z,95621.84
2019-02-19T00:31:31.891Z,95615.06
2019-02-19T00:33:58.350Z,95616.35
2019-02-19T00:36:24.695Z,95618.55
2019-02-19T00:38:51.025Z,95620.39
2019-02-19T00:41:17.361Z,95614.88
2019-02-19T00:43:43.689Z,95614.80
2019-02-19T00:46:10.004Z,95608.84
2019-02-19T00:48:36.434Z,95610.65
2019-02-19T00:51:02.789Z,95611.59
2019-02-19T00:53:29.154Z,95612.42
2019-02-19T00:55:55.479Z,95610.48
2019-02-19T00:58:21.819Z,95603.88
2019-02-19T01:00:48.149Z,95608.45
2019-02-19T01:03:14.469Z,95610.67
2019-02-19T01:05:40.828Z,95606.08
2019-02-19T01:08:07.342Z,95596.63
2019-02-19T01:10:33.661Z,95602.86
2019-02-19T01:13:00.001Z,95595.23
2019-02-19T01:15:26.342Z,95594.40
2019-02-19T01:17:52.670Z,95589.98
2019-02-19T01:20:19.002Z,95590.36
2019-02-19T01:22:45.348Z,95588.97
2019-02-19T01:25:11.673Z,95588.02
2019-02-19T01:27:38.063Z,95588.02
2019-02-19T01:30:04.356Z,95577.63
2019-02-19T01:32:30.767Z,95578.91
2019-02-19T01:34:57.099Z,95579.11
2019-02-19T01:37:23.552Z,95582.88
2019-02-19T01:39:49.906Z,95578.02
2019-02-19T01:42:16.318Z,95578.73
2019-02-19T01:44:42.641Z,95571.74
2019-02-19T01:47:08.976Z,95568.45
2019-02-19T01:49:35.306Z,95564.98
2019-02-19T01:52:01.638Z,95566.72
2019-02-19T01:54:27.965Z,95565.52
2019-02-19T01:56:54.295Z,95555.53
2019-02-19T01:59:20.636Z,95560.19
2019-02-19T02:01:47.016Z,95558.75
2019-02-19T02:04:13.345Z,95556.82
2019-02-19T02:06:39.718Z,95551.76
2019-02-19T02:09:06.050Z,95548.09
2019-02-19T02:11:32.378Z,95547.97
2019-02-19T02:13:58.709Z,95553.49
2019-02-19T02:16:25.045Z,95551.00
2019-02-19T02:18:51.439Z,95556.52
2019-02-19T02:21:17.803Z,95555.04
2019-02-19T02:23:44.131Z,95555.75
2019-02-19T02:26:10.568Z,95559.52
2019-02-19T02:28:36.897Z,95553.36
2019-02-19T02:31:03.235Z,95558.77
2019-02-19T02:33:29.559Z,95555.66
2019-02-19T02:35:55.899Z,95559.52
2019-02-19T02:38:22.249Z,95555.92
2019-02-19T02:40:48.619Z,95552.70
2019-02-19T02:43:14.962Z,95551.30
2019-02-19T02:45:41.294Z,95549.48
2019-02-19T02:48:07.627Z,95553.34
2019-02-19T02:50:33.968Z,95552.31
2019-02-19T02:53:00.292Z,95555.52
2019-02-19T02:55:26.617Z,95558.09
2019-02-19T02:57:52.950Z,95557.72
2019-02-19T03:00:19.353Z,95556.69
2019-02-19T03:02:45.723Z,95555.86
2019-02-19T03:05:12.140Z,95560.35
2019-02-19T03:07:38.496Z,95553.47
2019-02-19T03:10:04.898Z,95552.56
2019-02-19T03:12:31.176Z,95554.56
2019-02-19T03:14:57.573Z,95555.13
2019-02-19T03:17:23.922Z,95550.24
2019-02-19T03:19:50.275Z,95548.77
2019-02-19T03:22:16.607Z,95550.70
2019-02-19T03:24:42.948Z,95550.62
2019-02-19T03:27:09.283Z,95553.27
2019-02-19T03:29:35.644Z,95554.36
2019-02-19T03:32:02.009Z,95553.83
2019-02-19T03:34:28.334Z,95554.73
2019-02-19T03:36:54.662Z,95554.53
2019-02-19T03:39:21.000Z,95556.28
2019-02-19T03:41:47.330Z,95556.73
2019-02-19T03:44:13.668Z,95550.11
2019-02-19T03:46:40.026Z,95555.27
2019-02-19T03:49:06.356Z,95551.60
2019-02-19T03:51:32.732Z,95548.31
2019-02-19T03:53:59.051Z,95549.98
2019-02-19T03:56:25.369Z,95551.33
2019-02-19T03:58:51.693Z,95554.66
2019-02-19T04:01:18.012Z,95550.47
2019-02-19T04:03:44.370Z,95546.47
2019-02-19T04:06:10.712Z,95553.07
2019-02-19T04:08:37.042Z,95549.21
2019-02-19T04:11:03.391Z,95549.67
2019-02-19T04:13:29.796Z,95548.35
2019-02-19T04:15:56.143Z,95545.20
2019-02-19T04:18:22.480Z,95543.00
2019-02-19T04:20:48.923Z,95544.46
2019-02-19T04:23:15.251Z,95551.14
2019-02-19T04:25:41.597Z,95551.77
2019-02-19T04:28:08.023Z,95550.32
2019-02-19T04:30:34.401Z,95553.40
2019-02-19T04:33:00.751Z,95550.11
2019-02-19T04:35:27.115Z,95551.66
2019-02-19T04:37:53.461Z,95557.80
2019-02-19T04:40:19.793Z,95557.34
2019-02-19T04:42:46.154Z,95557.34
2019-02-19T04:45:12.503Z,95555.73
2019-02-19T04:47:38.828Z,95559.92
2019-02-19T04:50:05.164Z,95560.02
2019-02-19T04:52:31.590Z,95558.73
2019-02-19T04:54:57.942Z,95562.75
2019-02-19T04:57:24.275Z,95565.95
2019-02-19T04:59:50.613Z,95568.07
2019-02-19T05:02:16.954Z,95565.75
2019-02-19T05:04:43.299Z,95556.28
2019-02-19T05:07:09.648Z,95563.88
2019-02-19T05:09:36.048Z,95564.53
2019-02-19T05:12:02.370Z,95562.80
2019-02-19T05:14:28.691Z,95566.91
2019-02-19T05:16:55.031Z,95570.31
2019-02-19T05:19:21.421Z,95569.77
2019-02-19T05:21:47.696Z,95564.75
2019-02-19T05:24:14.063Z,95564.75
2019-02-19T05:26:40.446Z,95568.15
2019-02-19T05:29:06.791Z,95568.06
2019-02-19T05:31:33.234Z,95567.81
2019-02-19T05:33:59.557Z,95567.48
2019-02-19T05:36:25.937Z,95578.16
2019-02-19T05:38:52.261Z,95582.56
2019-02-19T05:41:18.584Z,95582.98
2019-02-19T05:43:44.916Z,95583.72
2019-02-19T05:46:11.259Z,95598.59
2019-02-19T05:48:37.730Z,95598.75
2019-02-19T05:51:04.071Z,95604.11
2019-02-19T05:53:30.438Z,95606.11
2019-02-19T05:55:56.735Z,95611.54
2019-02-19T05:58:23.067Z,95613.91
2019-02-19T06:00:49.456Z,95616.16
2019-02-19T06:03:15.818Z,95613.37
2019-02-19T06:05:42.109Z,95616.47
2019-02-19T06:08:08.446Z,95612.39
2019-02-19T06:10:34.824Z,95618.87
2019-02-19T06:13:01.271Z,95617.44
2019-02-19T06:15:27.533Z,95617.22
2019-02-19T06:17:53.870Z,95617.19
2019-02-19T06:20:20.273Z,95618.36
2019-02-19T06:22:46.649Z,95620.97
2019-02-19T06:25:13.024Z,95622.08
2019-02-19T06:27:39.351Z,95624.38
2019-02-19T06:30:05.754Z,95618.55
2019-02-19T06:32:32.093Z,95619.58
2019-02-19T06:34:58.471Z,95614.86
2019-02-19T06:37:24.836Z,95615.12
2019-02-19T06:39:51.224Z,95613.28
2019-02-19T06:42:17.583Z,95613.91
2019-02-19T06:44:43.938Z,95614.91
2019-02-19T06:47:10.319Z,95605.98
2019-02-19T06:49:36.687Z,95611.28
2019-02-19T06:52:03.060Z,95614.76
2019-02-19T06:54:29.392Z,95618.31
2019-02-19T06:56:55.714Z,95617.50
2019-02-19T06:59:22.085Z,95624.70
2019-02-19T07:01:48.460Z,95624.23
2019-02-19T07:04:14.817Z,95619.61
2019-02-19T07:06:41.154Z,95615.45
2019-02-19T07:09:07.562Z,95616.18
2019-02-19T07:11:33.963Z,95615.22
2019-02-19T07:14:00.298Z,95618.17
2019-02-19T07:16:26.762Z,95614.67
2019-02-19T07:18:53.433Z,95618.91
2019-02-19T07:21:19.768Z,95623.47
2019-02-19T07:23:46.138Z,95616.89
2019-02-19T07:26:12.499Z,95619.39
2019-02-19T07:28:38.850Z,95624.92
2019-02-19T07:31:05.190Z,95613.53
2019-02-19T07:33:31.579Z,95612.14
2019-02-19T07:35:57.904Z,95621.52
2019-02-19T07:38:24.338Z,95617.81
2019-02-19T07:40:50.712Z,95623.86
2019-02-19T07:43:17.065Z,95614.30
2019-02-19T07:45:43.452Z,95613.28
2019-02-19T07:48:10.295Z,95617.02
2019-02-19T07:50:38.845Z,95619.05
2019-02-19T07:53:05.173Z,95618.31
2019-02-19T07:55:32.949Z,95611.63
2019-02-19T07:57:57.930Z,95611.39
2019-02-19T08:00:24.526Z,95611.91
2019-02-19T08:02:50.856Z,95611.98
2019-02-19T08:05:17.356Z,95612.48
2019-02-19T08:07:43.710Z,95610.26
2019-02-19T08:10:10.132Z,95604.96
2019-02-19T08:12:36.479Z,95606.13
2019-02-19T08:15:02.830Z,95602.38
2019-02-19T08:17:33.403Z,95599.43
2019-02-19T08:19:55.562Z,95593.45
2019-02-19T08:22:21.912Z,95593.45
2019-02-19T08:24:48.250Z,95594.48
2019-02-19T08:27:14.734Z,95595.78
2019-02-19T08:29:43.244Z,95597.08
2019-02-19T08:32:09.668Z,95597.08
2019-02-19T08:34:36.058Z,95597.44
2019-02-19T08:37:02.435Z,95597.34
2019-02-19T08:39:29.135Z,95599.55
2019-02-19T08:41:55.476Z,95592.96
2019-02-19T08:44:21.800Z,95597.91
2019-02-19T08:46:48.178Z,95596.37
2019-02-19T08:49:14.599Z,95596.40
2019-02-19T08:51:41.016Z,95591.80
2019-02-19T08:54:07.683Z,95594.98
2019-02-19T08:56:34.030Z,95600.84
2019-02-19T08:59:00.363Z,95593.58
2019-02-19T09:01:26.807Z,95591.92
2019-02-19T09:03:53.196Z,95593.32
2019-02-19T09:06:19.627Z,95591.22
2019-02-19T09:08:46.012Z,95575.37
2019-02-19T09:11:12.440Z,95584.16
2019-02-19T09:13:39.024Z,95583.59
2019-02-19T09:16:05.444Z,95582.39
2019-02-19T09:18:31.775Z,95576.75
2019-02-19T09:20:58.203Z,95579.00
2019-02-19T09:23:24.592Z,95579.36
2019-02-19T09:25:51.250Z,95573.37
2019-02-19T09:28:17.612Z,95577.46
2019-02-19T09:30:43.972Z,95578.42
2019-02-19T09:33:10.347Z,95580.52
2019-02-19T09:35:36.807Z,95572.77
2019-02-19T09:38:03.159Z,95575.35
2019-02-19T09:40:29.671Z,95572.77
2019-02-19T09:42:56.101Z,95571.81
2019-02-19T09:45:22.459Z,95562.66
2019-02-19T09:47:48.805Z,95562.90
2019-02-19T09:50:15.202Z,95556.66
2019-02-19T09:52:41.567Z,95554.44
2019-02-19T09:55:09.593Z,95551.73
2019-02-19T09:57:34.293Z,95555.25
2019-02-19T10:00:00.709Z,95545.51
2019-02-19T10:02:27.027Z,95544.55
2019-02-19T10:04:53.366Z,95541.48
2019-02-19T10:07:19.710Z,95533.66
2019-02-19T10:09:46.042Z,95527.37
2019-02-19T10:12:12.425Z,95524.69
2019-02-19T10:14:38.783Z,95519.75
2019-02-19T10:17:05.157Z,95516.96
2019-02-19T10:19:31.519Z,95518.09
2019-02-19T10:21:57.847Z,95511.31
2019-02-19T10:24:24.211Z,95504.38
2019-02-19T10:26:50.543Z,95503.42
2019-02-19T10:29:16.889Z,95500.75
2019-02-19T10:31:43.272Z,95494.03
2019-02-19T10:34:09.610Z,95490.97
2019-02-19T10:36:35.965Z,95488.39
2019-02-19T10:39:02.299Z,95485.11
2019-02-19T10:41:28.648Z,95480.08
2019-02-19T10:43:54.977Z,95473.03
2019-02-19T10:46:21.391Z,95469.02
2019-02-19T10:48:47.826Z,95461.52
2019-02-19T10:51:14.291Z,95460.80
2019-02-19T10:53:40.666Z,95458.45
2019-02-19T10:56:07.014Z,95453.53
2019-02-19T10:58:33.453Z,95448.35
2019-02-19T11:00:59.780Z,95445.55
2019-02-19T11:03:26.198Z,95440.75
2019-02-19T11:05:52.515Z,95440.15
2019-02-19T11:08:18.894Z,95438.16
2019-02-19T11:10:45.338Z,95429.93
2019-02-19T11:13:11.753Z,95434.63
2019-02-19T11:15:38.069Z,95426.41
2019-02-19T11:18:04.440Z,95422.78
2019-02-19T11:20:30.800Z,95417.62
2019-02-19T11:22:57.120Z,95417.24
2019-02-19T11:25:23.622Z,95407.02
2019-02-19T11:27:49.987Z,95405.64
2019-02-19T11:30:16.381Z,95403.52
2019-02-19T11:32:42.705Z,95398.11
2019-02-19T11:35:09.081Z,95402.58
2019-02-19T11:37:37.303Z,95397.17
2019-02-19T11:40:01.776Z,95399.31
2019-02-19T11:42:28.130Z,95392.38
2019-02-19T11:44:54.550Z,95382.30
2019-02-19T11:47:26.465Z,95375.11
2019-02-19T11:49:47.234Z,95377.94
2019-02-19T11:52:13.666Z,95378.17
2019-02-19T11:54:39.998Z,95367.97
2019-02-19T11:57:06.388Z,95364.69
2019-02-19T11:59:32.742Z,95367.14
2019-02-19T12:01:59.090Z,95360.13
2019-02-19T12:04:26.024Z,95351.44
2019-02-19T12:06:52.865Z,95352.24
2019-02-19T12:09:19.291Z,95349.44
2019-02-19T12:11:45.621Z,95345.46
2019-02-19T12:14:11.978Z,95340.41
2019-02-19T12:16:38.324Z,95343.55
2019-02-19T12:19:04.720Z,95323.13
2019-02-19T12:21:31.082Z,95333.24
2019-02-19T12:23:57.516Z,95333.61
2019-02-19T12:26:23.877Z,95329.58
2019-02-19T12:28:50.401Z,95326.22
2019-02-19T12:31:16.795Z,95325.48
2019-02-19T12:33:43.243Z,95323.00
2019-02-19T12:36:09.573Z,95316.47
2019-02-19T12:38:35.973Z,95315.02
2019-02-19T12:41:02.314Z,95310.92
2019-02-19T12:43:28.758Z,95300.42
2019-02-19T12:45:55.090Z,95307.19
2019-02-19T12:48:21.420Z,95302.72
2019-02-19T12:50:47.818Z,95295.36
2019-02-19T12:53:14.142Z,95293.24
2019-02-19T12:55:40.628Z,95295.59
2019-02-19T12:58:06.965Z,95289.22
2019-02-19T13:00:33.326Z,95285.64
2019-02-19T13:02:59.724Z,95288.53
2019-02-19T13:05:26.063Z,95284.34
2019-02-19T13:07:52.429Z,95280.19
2019-02-19T13:10:18.760Z,95274.94
2019-02-19T13:12:45.101Z,95269.80
2019-02-19T13:15:11.437Z,95271.91
2019-02-19T13:17:37.841Z,95268.03
2019-02-19T13:20:05.404Z,95271.08
2019-02-19T13:22:30.650Z,95268.73
2019-02-19T13:24:58.912Z,95264.02
2019-02-19T13:27:23.300Z,95269.08
2019-02-19T13:29:49.635Z,95264.62
2019-02-19T13:32:15.988Z,95265.34
2019-02-19T13:34:42.353Z,95264.28
2019-02-19T13:37:08.737Z,95254.30
2019-02-19T13:39:35.074Z,95261.23
2019-02-19T13:42:01.485Z,95259.22
2019-02-19T13:44:27.829Z,95261.58
2019-02-19T13:46:54.163Z,95255.14
2019-02-19T13:49:20.499Z,95257.26
2019-02-19T13:51:46.882Z,95263.42
2019-02-19T13:54:13.257Z,95252.19
2019-02-19T13:56:39.707Z,95247.84
2019-02-19T13:59:06.054Z,95249.98
2019-02-19T14:01:33.099Z,95254.77
2019-02-19T14:03:59.451Z,95255.27
2019-02-19T14:06:25.787Z,95252.20
2019-02-19T14:08:52.119Z,95253.01
2019-02-19T14:11:18.590Z,95245.48
2019-02-19T14:13:44.992Z,95244.41
2019-02-19T14:16:11.344Z,95244.42
2019-02-19T14:18:37.815Z,95245.04
2019-02-19T14:21:04.179Z,95240.69
2019-02-19T14:23:30.679Z,95248.89
2019-02-19T14:25:57.045Z,95244.78
2019-02-19T14:28:23.419Z,95243.27
2019-02-19T14:30:49.863Z,95240.93
2019-02-19T14:33:16.284Z,95239.04
2019-02-19T14:35:42.631Z,95231.66
2019-02-19T14:38:09.011Z,95234.56
2019-02-19T14:40:35.308Z,95229.52
2019-02-19T14:43:01.721Z,95226.47
2019-02-19T14:45:28.118Z,95226.36
2019-02-19T14:47:54.465Z,95227.16
2019-02-19T14:50:20.828Z,95223.87
2019-02-19T14:52:47.293Z,95225.41
2019-02-19T14:55:13.585Z,95230.45
2019-02-19T14:57:39.920Z,95226.59
2019-02-19T15:00:06.248Z,95217.01
2019-02-19T15:02:32.582Z,95220.03
2019-02-19T15:04:58.924Z,95226.09
2019-02-19T15:07:25.276Z,95223.64
2019-02-19T15:09:51.662Z,95219.75
2019-02-19T15:12:20.159Z,95222.59
2019-02-19T15:14:44.751Z,95220.63
2019-02-19T15:17:11.076Z,95221.37
2019-02-19T15:19:39.307Z,95217.88
2019-02-19T15:22:03.782Z,95223.71
2019-02-19T15:24:30.153Z,95220.22
2019-02-19T15:26:56.503Z,95222.95
2019-02-19T15:29:22.827Z,95221.28
2019-02-19T15:31:49.161Z,95214.00
2019-02-19T15:34:15.551Z,95223.64
2019-02-19T15:36:43.827Z,95218.33
2019-02-19T15:39:10.170Z,95218.48
2019-02-19T15:41:36.503Z,95216.48
2019-02-19T15:44:02.834Z,95216.73
2019-02-19T15:46:29.211Z,95218.92
2019-02-19T15:48:58.191Z,95219.17
2019-02-19T15:51:21.913Z,95216.22
2019-02-19T15:53:48.261Z,95222.42
2019-02-19T15:56:17.489Z,95219.51
2019-02-19T15:58:42.895Z,95227.02
2019-02-19T16:01:07.281Z,95223.71
2019-02-19T16:03:33.682Z,95231.93
2019-02-19T16:06:00.014Z,95227.20
2019-02-19T16:08:26.401Z,95228.88
2019-02-19T16:10:52.725Z,95230.55
2019-02-19T16:13:19.101Z,95233.23
2019-02-19T16:15:45.485Z,95236.64
2019-02-19T16:18:11.883Z,95236.05
2019-02-19T16:20:38.245Z,95238.41
2019-02-19T16:23:04.574Z,95235.33
2019-02-19T16:25:30.983Z,95240.99
2019-02-19T16:27:57.373Z,95244.04
2019-02-19T16:30:23.695Z,95237.36
2019-02-19T16:32:50.034Z,95234.75
2019-02-19T16:35:16.370Z,95238.76
2019-02-19T16:37:42.760Z,95239.36
2019-02-19T16:40:09.123Z,95241.59
2019-02-19T16:42:37.383Z,95243.94
2019-02-19T16:45:03.713Z,95238.29
2019-02-19T16:47:30.059Z,95241.45
2019-02-19T16:49:56.394Z,95243.13
2019-02-19T16:52:22.783Z,95244.28
2019-02-19T16:54:49.107Z,95247.92
2019-02-19T16:57:15.442Z,95247.23
2019-02-19T16:59:41.768Z,95247.48
2019-02-19T17:02:08.171Z,95250.77
2019-02-19T17:04:34.532Z,95249.70
2019-02-19T17:07:00.879Z,95243.61
2019-02-19T17:09:27.252Z,95248.31
2019-02-19T17:11:53.539Z,95242.45
2019-02-19T17:14:19.874Z,95251.48
2019-02-19T17:16:46.261Z,95242.33
2019-02-19T17:19:12.613Z,95246.88
2019-02-19T17:21:38.962Z,95245.51
2019-02-19T17:24:05.283Z,95246.44
2019-02-19T17:26:31.634Z,95246.44
2019-02-19T17:28:58.012Z,95248.57
2019-02-19T17:31:24.344Z,95241.76
2019-02-19T17:33:50.772Z,95241.53
2019-02-19T17:36:17.103Z,95248.31
2019-02-19T17:38:43.458Z,95254.20
2019-02-19T17:41:09.794Z,95247.98
2019-02-19T17:43:36.166Z,95258.05
2019-02-19T17:46:02.495Z,95252.56
2019-02-19T17:48:28.827Z,95251.02
2019-02-19T17:50:55.168Z,95253.92
2019-02-19T17:53:21.513Z,95254.40
2019-02-19T17:55:47.845Z,95255.69
2019-02-19T17:58:14.226Z,95260.28
2019-02-19T18:00:40.564Z,95258.63
2019-02-19T18:03:06.900Z,95256.98
2019-02-19T18:05:33.234Z,95258.27
2019-02-19T18:07:59.556Z,95260.27
2019-02-19T18:10:25.912Z,95262.27
2019-02-19T18:12:52.276Z,95255.23
2019-02-19T18:15:18.599Z,95260.48
2019-02-19T18:17:44.926Z,95264.27
2019-02-19T18:20:11.260Z,95259.80
2019-02-19T18:22:37.627Z,95258.48
2019-02-19T18:25:03.924Z,95259.31
2019-02-19T18:27:30.257Z,95259.55
2019-02-19T18:29:56.578Z,95257.20
2019-02-19T18:32:22.973Z,95255.55
2019-02-19T18:34:49.302Z,95255.42
2019-02-19T18:37:15.630Z,95258.69
2019-02-19T18:39:41.954Z,95255.19
2019-02-19T18:42:08.291Z,95256.12
2019-02-19T18:44:34.631Z,95264.08
2019-02-19T18:47:00.973Z,95266.26
2019-02-19T18:49:27.307Z,95257.96
2019-02-19T18:51:56.165Z,95263.58
2019-02-19T18:54:22.532Z,95260.73
2019-02-19T18:56:48.907Z,95260.27
2019-02-19T18:59:15.235Z,95264.50
2019-02-19T19:01:41.568Z,95264.73
2019-02-19T19:04:07.929Z,95267.53
2019-02-19T19:06:34.310Z,95267.39
2019-02-19T19:09:00.641Z,95264.45
2019-02-19T19:11:26.974Z,95267.16
2019-02-19T19:13:53.335Z,95276.27
2019-02-19T19:16:19.684Z,95277.79
2019-02-19T19:18:46.005Z,95277.42
2019-02-19T19:21:12.335Z,95274.15
2019-02-19T19:23:38.725Z,95285.38
2019-02-19T19:26:05.057Z,95278.00
2019-02-19T19:28:31.408Z,95288.31
2019-02-19T19:30:57.808Z,95290.88
2019-02-19T19:33:24.161Z,95292.95
2019-02-19T19:35:50.529Z,95292.48
2019-02-19T19:38:16.861Z,95295.53
2019-02-19T19:40:43.183Z,95293.30
2019-02-19T19:43:09.552Z,95295.14
2019-02-19T19:45:35.889Z,95297.63
2019-02-19T19:48:02.213Z,95295.37
2019-02-19T19:50:28.576Z,95300.42
2019-02-19T19:52:54.939Z,95295.03
2019-02-19T19:55:21.234Z,95296.05
2019-02-19T19:57:47.565Z,95301.34
2019-02-19T20:00:13.896Z,95300.38
2019-02-19T20:02:40.321Z,95296.95
2019-02-19T20:05:06.621Z,95297.63
2019-02-19T20:07:33.076Z,95299.53
2019-02-19T20:09:59.433Z,95296.34
2019-02-19T20:12:25.887Z,95301.98
2019-02-19T20:14:52.210Z,95306.99
2019-02-19T20:17:18.534Z,95303.22
2019-02-19T20:19:44.927Z,95306.79
2019-02-19T20:22:11.201Z,95308.91
2019-02-19T20:24:37.536Z,95313.66
2019-02-19T20:27:03.869Z,95313.20
2019-02-19T20:29:30.205Z,95315.77
2019-02-19T20:31:56.540Z,95312.00
2019-02-19T20:34:22.884Z,95311.16
2019-02-19T20:36:49.270Z,95306.92
2019-02-19T20:39:15.535Z,95312.20
2019-02-19T20:41:41.867Z,95313.58
2019-02-19T20:44:08.204Z,95313.42
2019-02-19T20:46:34.521Z,95310.63
2019-02-19T20:49:00.856Z,95309.09
2019-02-19T20:51:35.913Z,95311.89
2019-02-19T20:53:53.520Z,95307.42
2019-02-19T20:56:19.844Z,95305.06
2019-02-19T20:58:46.169Z,95306.01
2019-02-19T21:01:12.522Z,95308.09
2019-02-19T21:03:38.861Z,95302.03
2019-02-19T21:06:05.315Z,95300.03
2019-02-19T21:08:31.643Z,95301.53
2019-02-19T21:10:58.000Z,95304.66
2019-02-19T21:13:24.378Z,95298.35
2019-02-19T21:15:50.734Z,95293.51
2019-02-19T21:18:17.053Z,95292.93
2019-02-19T21:20:45.343Z,95299.23
2019-02-19T21:23:09.721Z,95295.25
2019-02-19T21:25:36.063Z,95292.66
2019-02-19T21:28:02.393Z,95294.52
2019-02-19T21:30:28.728Z,95292.74
2019-02-19T21:32:55.131Z,95293.33
2019-02-19T21:35:21.444Z,95289.22
2019-02-19T21:37:47.771Z,95295.73
2019-02-19T21:40:14.104Z,95299.38
2019-02-19T21:42:40.450Z,95292.70
2019-02-19T21:45:07.959Z,95301.83
2019-02-19T21:47:33.110Z,95298.27
2019-02-19T21:49:59.428Z,95307.19
2019-02-19T21:52:25.770Z,95307.12
2019-02-19T21:54:52.118Z,95313.83
2019-02-19T21:57:18.514Z,95310.64
2019-02-19T21:59:44.900Z,95313.55
2019-02-19T22:02:16.455Z,95304.75
2019-02-19T22:04:37.560Z,95313.75
2019-02-19T22:07:03.945Z,95313.41
2019-02-19T22:09:30.297Z,95313.22
2019-02-19T22:11:56.631Z,95307.55
2019-02-19T22:14:22.957Z,95309.45
2019-02-19T22:16:49.310Z,95310.95
2019-02-19T22:19:15.639Z,95319.86
2019-02-19T22:21:41.975Z,95318.11
2019-02-19T22:24:08.312Z,95315.63
2019-02-19T22:26:34.700Z,95316.55
2019-02-19T22:29:01.030Z,95313.94
2019-02-19T22:31:27.431Z,95315.22
2019-02-19T22:33:53.768Z,95315.68
2019-02-19T22:36:20.096Z,95318.62
2019-02-19T22:38:46.441Z,95317.62
2019-02-19T22:41:12.803Z,95318.58
2019-02-19T22:43:39.135Z,95314.97
2019-02-19T22:46:05.461Z,95321.14
2019-02-19T22:48:31.790Z,95317.50
2019-02-19T22:50:58.164Z,95318.30
2019-02-19T22:53:24.434Z,95313.16
2019-02-19T22:55:51.720Z,95316.88
2019-02-19T22:58:17.120Z,95316.05
2019-02-19T23:00:43.455Z,95316.30
2019-02-19T23:03:09.796Z,95317.58
2019-02-19T23:05:36.187Z,95314.77
2019-02-19T23:08:02.521Z,95318.25
2019-02-19T23:10:28.860Z,95316.71
2019-02-19T23:12:55.213Z,95314.59
2019-02-19T23:15:21.539Z,95317.45
2019-02-19T23:17:47.908Z,95318.03
2019-02-19T23:20:14.262Z,95321.59
2019-02-19T23:22:40.633Z,95321.31
2019-02-19T23:25:07.031Z,95320.03
2019-02-19T23:27:33.355Z,95320.14
2019-02-19T23:29:59.759Z,95322.09
2019-02-19T23:32:26.129Z,95326.41
2019-02-19T23:34:52.480Z,95324.66
2019-02-19T23:37:18.872Z,95328.89
2019-02-19T23:39:45.205Z,95333.41
2019-02-19T23:42:11.565Z,95326.52
2019-02-19T23:44:37.946Z,95327.44
2019-02-19T23:47:04.278Z,95329.63
2019-02-19T23:49:30.608Z,95327.06
2019-02-19T23:51:56.951Z,95335.55
2019-02-19T23:54:23.270Z,95342.23
2019-02-19T23:56:49.619Z,95342.52
2019-02-19T23:59:16.007Z,95344.83
